sensor_id;sensor_type;location;lat;lon;timestamp;temperature;humidity
29547;DHT22;40782;47.264;11.330;2022-12-18T00:02:23;-2.70;1.00
29547;DHT22;40782;47.264;11.330;2022-12-18T00:04:50;-2.60;1.00
29547;DHT22;40782;47.264;11.330;2022-12-18T00:07:17;-2.60;1.00
29547;DHT22;40782;47.264;11.330;2022-12-18T00:09:44;-2.60;1.00
29547;DHT22;40782;47.264;11.330;2022-12-18T00:12:12;-2.70;1.00
29547;DHT22;40782;47.264;11.330;2022-12-18T00:14:39;-2.80;1.00
29547;DHT22;40782;47.264;11.330;2022-12-18T00:17:07;-2.80;1.00
29547;DHT22;40782;47.264;11.330;2022-12-18T00:19:35;-2.90;1.00
29547;DHT22;40782;47.264;11.330;2022-12-18T00:22:02;-2.90;1.00
29547;DHT22;40782;47.264;11.330;2022-12-18T00:24:29;-2.90;1.00
29547;DHT22;40782;47.264;11.330;2022-12-18T00:26:56;-2.70;1.00
29547;DHT22;40782;47.264;11.330;2022-12-18T00:29:23;-2.80;1.00
29547;DHT22;40782;47.264;11.330;2022-12-18T00:31:50;-2.60;1.00
29547;DHT22;40782;47.264;11.330;2022-12-18T00:34:19;-2.50;1.00
29547;DHT22;40782;47.264;11.330;2022-12-18T00:36:47;-2.50;1.00
29547;DHT22;40782;47.264;11.330;2022-12-18T00:39:15;-2.50;1.00
29547;DHT22;40782;47.264;11.330;2022-12-18T00:41:42;-2.50;1.00
29547;DHT22;40782;47.264;11.330;2022-12-18T00:44:26;-2.60;1.00
29547;DHT22;40782;47.264;11.330;2022-12-18T00:46:53;-2.70;1.00
29547;DHT22;40782;47.264;11.330;2022-12-18T00:49:22;-2.80;1.00
29547;DHT22;40782;47.264;11.330;2022-12-18T00:51:49;-2.80;1.00
29547;DHT22;40782;47.264;11.330;2022-12-18T00:54:17;-2.80;1.00
29547;DHT22;40782;47.264;11.330;2022-12-18T00:56:44;-2.90;1.00
29547;DHT22;40782;47.264;11.330;2022-12-18T00:59:11;-2.90;1.00
29547;DHT22;40782;47.264;11.330;2022-12-18T01:01:39;-3.00;1.00
29547;DHT22;40782;47.264;11.330;2022-12-18T01:04:06;-3.00;1.00
29547;DHT22;40782;47.264;11.330;2022-12-18T01:06:34;-2.90;1.00
29547;DHT22;40782;47.264;11.330;2022-12-18T01:09:02;-2.90;1.00
29547;DHT22;40782;47.264;11.330;2022-12-18T01:11:29;-2.70;1.00
29547;DHT22;40782;47.264;11.330;2022-12-18T01:13:56;-2.70;1.00
29547;DHT22;40782;47.264;11.330;2022-12-18T01:16:24;-2.70;1.00
29547;DHT22;40782;47.264;11.330;2022-12-18T01:18:52;-2.70;1.00
29547;DHT22;40782;47.264;11.330;2022-12-18T01:21:21;-2.80;1.00
29547;DHT22;40782;47.264;11.330;2022-12-18T01:23:53;-2.90;1.00
29547;DHT22;40782;47.264;11.330;2022-12-18T01:26:21;-2.90;1.00
29547;DHT22;40782;47.264;11.330;2022-12-18T01:28:48;-2.90;1.00
29547;DHT22;40782;47.264;11.330;2022-12-18T01:31:17;-3.00;1.00
29547;DHT22;40782;47.264;11.330;2022-12-18T01:33:45;-3.00;1.00
29547;DHT22;40782;47.264;11.330;2022-12-18T01:36:17;-3.10;1.00
29547;DHT22;40782;47.264;11.330;2022-12-18T01:38:45;-3.10;1.00
29547;DHT22;40782;47.264;11.330;2022-12-18T01:41:15;-3.20;1.00
29547;DHT22;40782;47.264;11.330;2022-12-18T01:43:46;-3.30;1.00
29547;DHT22;40782;47.264;11.330;2022-12-18T01:46:14;-3.40;1.00
29547;DHT22;40782;47.264;11.330;2022-12-18T01:48:45;-3.40;1.00
29547;DHT22;40782;47.264;11.330;2022-12-18T01:51:13;-3.40;1.00
29547;DHT22;40782;47.264;11.330;2022-12-18T01:53:42;-3.40;1.00
29547;DHT22;40782;47.264;11.330;2022-12-18T01:56:15;-3.40;1.00
29547;DHT22;40782;47.264;11.330;2022-12-18T01:58:52;-3.40;1.00
29547;DHT22;40782;47.264;11.330;2022-12-18T02:01:22;-3.40;1.00
29547;DHT22;40782;47.264;11.330;2022-12-18T02:03:50;-3.50;1.00
29547;DHT22;40782;47.264;11.330;2022-12-18T02:06:21;-3.40;1.00
29547;DHT22;40782;47.264;11.330;2022-12-18T02:08:58;-3.50;1.00
29547;DHT22;40782;47.264;11.330;2022-12-18T02:11:39;-3.50;1.00
29547;DHT22;40782;47.264;11.330;2022-12-18T02:14:16;-3.50;1.00
29547;DHT22;40782;47.264;11.330;2022-12-18T02:16:49;-3.40;1.00
29547;DHT22;40782;47.264;11.330;2022-12-18T02:19:47;-3.40;1.00
29547;DHT22;40782;47.264;11.330;2022-12-18T02:22:28;-3.30;1.00
29547;DHT22;40782;47.264;11.330;2022-12-18T02:25:06;-3.30;1.00
29547;DHT22;40782;47.264;11.330;2022-12-18T02:27:39;-3.30;1.00
29547;DHT22;40782;47.264;11.330;2022-12-18T02:30:08;-3.40;1.00
29547;DHT22;40782;47.264;11.330;2022-12-18T02:32:39;-3.50;1.00
29547;DHT22;40782;47.264;11.330;2022-12-18T02:35:16;-3.50;1.00
29547;DHT22;40782;47.264;11.330;2022-12-18T02:37:47;-3.60;1.00
29547;DHT22;40782;47.264;11.330;2022-12-18T02:40:15;-3.60;1.00
29547;DHT22;40782;47.264;11.330;2022-12-18T02:42:45;-3.60;1.00
29547;DHT22;40782;47.264;11.330;2022-12-18T02:45:12;-3.80;1.00
29547;DHT22;40782;47.264;11.330;2022-12-18T02:47:43;-3.90;1.00
29547;DHT22;40782;47.264;11.330;2022-12-18T02:50:16;-3.90;1.00
29547;DHT22;40782;47.264;11.330;2022-12-18T02:52:54;-4.00;1.00
29547;DHT22;40782;47.264;11.330;2022-12-18T02:55:31;-3.80;1.00
29547;DHT22;40782;47.264;11.330;2022-12-18T02:58:07;-3.80;1.00
29547;DHT22;40782;47.264;11.330;2022-12-18T03:00:42;-3.80;1.00
29547;DHT22;40782;47.264;11.330;2022-12-18T03:03:14;-3.70;1.00
29547;DHT22;40782;47.264;11.330;2022-12-18T03:05:47;-3.60;1.00
29547;DHT22;40782;47.264;11.330;2022-12-18T03:08:19;-3.60;1.00
29547;DHT22;40782;47.264;11.330;2022-12-18T03:10:51;-3.60;1.00
29547;DHT22;40782;47.264;11.330;2022-12-18T03:13:29;-3.60;1.00
29547;DHT22;40782;47.264;11.330;2022-12-18T03:15:59;-3.50;1.00
29547;DHT22;40782;47.264;11.330;2022-12-18T03:18:30;-3.60;1.00
29547;DHT22;40782;47.264;11.330;2022-12-18T03:21:02;-3.60;1.00
29547;DHT22;40782;47.264;11.330;2022-12-18T03:23:33;-3.70;1.00
29547;DHT22;40782;47.264;11.330;2022-12-18T03:26:07;-3.90;1.00
29547;DHT22;40782;47.264;11.330;2022-12-18T03:28:39;-3.90;1.00
29547;DHT22;40782;47.264;11.330;2022-12-18T03:31:11;-3.70;1.00
29547;DHT22;40782;47.264;11.330;2022-12-18T03:33:42;-3.80;1.00
29547;DHT22;40782;47.264;11.330;2022-12-18T03:36:11;-4.10;1.00
29547;DHT22;40782;47.264;11.330;2022-12-18T03:38:38;-4.10;1.00
29547;DHT22;40782;47.264;11.330;2022-12-18T03:41:11;-4.10;1.00
29547;DHT22;40782;47.264;11.330;2022-12-18T03:43:48;-4.20;1.00
29547;DHT22;40782;47.264;11.330;2022-12-18T03:46:24;-4.20;1.00
29547;DHT22;40782;47.264;11.330;2022-12-18T03:48:58;-4.20;1.00
29547;DHT22;40782;47.264;11.330;2022-12-18T03:51:30;-4.20;1.00
29547;DHT22;40782;47.264;11.330;2022-12-18T03:54:03;-4.20;1.00
29547;DHT22;40782;47.264;11.330;2022-12-18T03:56:35;-4.30;1.00
29547;DHT22;40782;47.264;11.330;2022-12-18T03:59:05;-4.30;1.00
29547;DHT22;40782;47.264;11.330;2022-12-18T04:01:37;-4.20;1.00
29547;DHT22;40782;47.264;11.330;2022-12-18T04:04:07;-4.30;1.00
29547;DHT22;40782;47.264;11.330;2022-12-18T04:06:36;-4.30;1.00
29547;DHT22;40782;47.264;11.330;2022-12-18T04:09:04;-4.30;1.00
29547;DHT22;40782;47.264;11.330;2022-12-18T04:11:31;-4.30;1.00
29547;DHT22;40782;47.264;11.330;2022-12-18T04:13:59;-4.30;1.00
29547;DHT22;40782;47.264;11.330;2022-12-18T04:16:28;-4.30;1.00
29547;DHT22;40782;47.264;11.330;2022-12-18T04:18:55;-4.40;1.00
29547;DHT22;40782;47.264;11.330;2022-12-18T04:21:22;-4.40;1.00
29547;DHT22;40782;47.264;11.330;2022-12-18T04:23:49;-4.50;1.00
29547;DHT22;40782;47.264;11.330;2022-12-18T04:26:16;-4.60;1.00
29547;DHT22;40782;47.264;11.330;2022-12-18T04:28:44;-4.70;1.00
29547;DHT22;40782;47.264;11.330;2022-12-18T04:31:11;-4.70;1.00
29547;DHT22;40782;47.264;11.330;2022-12-18T04:33:39;-4.70;1.00
29547;DHT22;40782;47.264;11.330;2022-12-18T04:36:07;-4.60;1.00
29547;DHT22;40782;47.264;11.330;2022-12-18T04:38:34;-4.60;1.00
29547;DHT22;40782;47.264;11.330;2022-12-18T04:41:01;-4.50;1.00
29547;DHT22;40782;47.264;11.330;2022-12-18T04:43:29;-4.50;1.00
29547;DHT22;40782;47.264;11.330;2022-12-18T04:46:02;-4.50;1.00
29547;DHT22;40782;47.264;11.330;2022-12-18T04:48:29;-4.60;1.00
29547;DHT22;40782;47.264;11.330;2022-12-18T04:50:58;-4.50;1.00
29547;DHT22;40782;47.264;11.330;2022-12-18T04:53:25;-4.40;1.00
29547;DHT22;40782;47.264;11.330;2022-12-18T04:56:03;-4.40;1.00
29547;DHT22;40782;47.264;11.330;2022-12-18T04:58:30;-4.40;1.00
29547;DHT22;40782;47.264;11.330;2022-12-18T05:00:57;-4.40;1.00
29547;DHT22;40782;47.264;11.330;2022-12-18T05:03:25;-4.60;1.00
29547;DHT22;40782;47.264;11.330;2022-12-18T05:05:52;-4.60;1.00
29547;DHT22;40782;47.264;11.330;2022-12-18T05:08:21;-4.70;1.00
29547;DHT22;40782;47.264;11.330;2022-12-18T05:10:48;-4.80;1.00
29547;DHT22;40782;47.264;11.330;2022-12-18T05:13:15;-4.80;1.00
29547;DHT22;40782;47.264;11.330;2022-12-18T05:15:42;-4.70;1.00
29547;DHT22;40782;47.264;11.330;2022-12-18T05:18:09;-4.70;1.00
29547;DHT22;40782;47.264;11.330;2022-12-18T05:20:36;-4.70;1.00
29547;DHT22;40782;47.264;11.330;2022-12-18T05:23:04;-4.80;1.00
29547;DHT22;40782;47.264;11.330;2022-12-18T05:25:32;-4.80;1.00
29547;DHT22;40782;47.264;11.330;2022-12-18T05:27:59;-4.70;1.00
29547;DHT22;40782;47.264;11.330;2022-12-18T05:30:26;-4.70;1.00
29547;DHT22;40782;47.264;11.330;2022-12-18T05:32:54;-4.60;1.00
29547;DHT22;40782;47.264;11.330;2022-12-18T05:35:21;-4.60;1.00
29547;DHT22;40782;47.264;11.330;2022-12-18T05:37:48;-4.60;1.00
29547;DHT22;40782;47.264;11.330;2022-12-18T05:40:15;-4.70;1.00
29547;DHT22;40782;47.264;11.330;2022-12-18T05:42:44;-4.80;1.00
29547;DHT22;40782;47.264;11.330;2022-12-18T05:45:11;-4.90;1.00
29547;DHT22;40782;47.264;11.330;2022-12-18T05:47:38;-5.10;1.00
29547;DHT22;40782;47.264;11.330;2022-12-18T05:50:06;-5.10;1.00
29547;DHT22;40782;47.264;11.330;2022-12-18T05:52:34;-5.20;1.00
29547;DHT22;40782;47.264;11.330;2022-12-18T05:55:01;-5.20;1.00
29547;DHT22;40782;47.264;11.330;2022-12-18T05:57:28;-5.20;1.00
29547;DHT22;40782;47.264;11.330;2022-12-18T05:59:57;-5.10;1.00
29547;DHT22;40782;47.264;11.330;2022-12-18T06:02:24;-5.10;1.00
29547;DHT22;40782;47.264;11.330;2022-12-18T06:04:51;-5.20;1.00
29547;DHT22;40782;47.264;11.330;2022-12-18T06:07:18;-5.20;1.00
29547;DHT22;40782;47.264;11.330;2022-12-18T06:09:45;-5.20;1.00
29547;DHT22;40782;47.264;11.330;2022-12-18T06:12:12;-5.20;1.00
29547;DHT22;40782;47.264;11.330;2022-12-18T06:14:40;-5.10;1.00
29547;DHT22;40782;47.264;11.330;2022-12-18T06:17:08;-4.90;1.00
29547;DHT22;40782;47.264;11.330;2022-12-18T06:19:35;-4.90;1.00
29547;DHT22;40782;47.264;11.330;2022-12-18T06:22:03;-4.90;1.00
29547;DHT22;40782;47.264;11.330;2022-12-18T06:24:30;-4.90;1.00
29547;DHT22;40782;47.264;11.330;2022-12-18T06:26:57;-4.90;1.00
29547;DHT22;40782;47.264;11.330;2022-12-18T06:29:24;-5.00;1.00
29547;DHT22;40782;47.264;11.330;2022-12-18T06:31:51;-5.00;1.00
29547;DHT22;40782;47.264;11.330;2022-12-18T06:34:20;-5.00;1.00
29547;DHT22;40782;47.264;11.330;2022-12-18T06:36:47;-5.10;1.00
29547;DHT22;40782;47.264;11.330;2022-12-18T06:39:14;-5.20;1.00
29547;DHT22;40782;47.264;11.330;2022-12-18T06:41:41;-5.30;1.00
29547;DHT22;40782;47.264;11.330;2022-12-18T06:44:08;-5.20;1.00
29547;DHT22;40782;47.264;11.330;2022-12-18T06:46:35;-5.30;1.00
29547;DHT22;40782;47.264;11.330;2022-12-18T06:49:03;-5.30;1.00
29547;DHT22;40782;47.264;11.330;2022-12-18T06:51:33;-5.30;1.00
29547;DHT22;40782;47.264;11.330;2022-12-18T06:54:00;-5.20;1.00
29547;DHT22;40782;47.264;11.330;2022-12-18T06:56:27;-5.30;1.00
29547;DHT22;40782;47.264;11.330;2022-12-18T06:58:54;-5.30;1.00
29547;DHT22;40782;47.264;11.330;2022-12-18T07:01:22;-5.30;1.00
29547;DHT22;40782;47.264;11.330;2022-12-18T07:03:52;-5.30;1.00
29547;DHT22;40782;47.264;11.330;2022-12-18T07:06:22;-5.20;1.00
29547;DHT22;40782;47.264;11.330;2022-12-18T07:08:52;-5.20;1.00
29547;DHT22;40782;47.264;11.330;2022-12-18T07:11:20;-5.20;1.00
29547;DHT22;40782;47.264;11.330;2022-12-18T07:13:47;-5.20;1.00
29547;DHT22;40782;47.264;11.330;2022-12-18T07:16:15;-5.20;1.00
29547;DHT22;40782;47.264;11.330;2022-12-18T07:18:43;-5.10;1.00
29547;DHT22;40782;47.264;11.330;2022-12-18T07:21:12;-5.00;1.00
29547;DHT22;40782;47.264;11.330;2022-12-18T07:23:40;-4.90;1.00
29547;DHT22;40782;47.264;11.330;2022-12-18T07:26:10;-4.80;1.00
29547;DHT22;40782;47.264;11.330;2022-12-18T07:28:39;-4.80;1.00
29547;DHT22;40782;47.264;11.330;2022-12-18T07:31:08;-4.80;1.00
29547;DHT22;40782;47.264;11.330;2022-12-18T07:33:35;-4.80;1.00
29547;DHT22;40782;47.264;11.330;2022-12-18T07:36:07;-4.90;1.00
29547;DHT22;40782;47.264;11.330;2022-12-18T07:38:35;-4.90;1.00
29547;DHT22;40782;47.264;11.330;2022-12-18T07:41:03;-5.00;1.00
29547;DHT22;40782;47.264;11.330;2022-12-18T07:43:38;-5.00;1.00
29547;DHT22;40782;47.264;11.330;2022-12-18T07:46:08;-4.80;1.00
29547;DHT22;40782;47.264;11.330;2022-12-18T07:48:36;-4.80;1.00
29547;DHT22;40782;47.264;11.330;2022-12-18T07:51:05;-4.80;1.00
29547;DHT22;40782;47.264;11.330;2022-12-18T07:53:33;-4.80;1.00
29547;DHT22;40782;47.264;11.330;2022-12-18T07:56:03;-4.80;1.00
29547;DHT22;40782;47.264;11.330;2022-12-18T07:58:30;-4.70;1.00
29547;DHT22;40782;47.264;11.330;2022-12-18T08:01:05;-4.60;1.00
29547;DHT22;40782;47.264;11.330;2022-12-18T08:03:32;-4.60;1.00
29547;DHT22;40782;47.264;11.330;2022-12-18T08:06:00;-4.50;1.00
29547;DHT22;40782;47.264;11.330;2022-12-18T08:08:28;-4.50;1.00
29547;DHT22;40782;47.264;11.330;2022-12-18T08:10:55;-4.40;1.00
29547;DHT22;40782;47.264;11.330;2022-12-18T08:13:29;-4.40;1.00
29547;DHT22;40782;47.264;11.330;2022-12-18T08:16:04;-4.30;1.00
29547;DHT22;40782;47.264;11.330;2022-12-18T08:18:32;-4.30;1.00
29547;DHT22;40782;47.264;11.330;2022-12-18T08:21:07;-4.30;1.00
29547;DHT22;40782;47.264;11.330;2022-12-18T08:23:35;-4.20;1.00
29547;DHT22;40782;47.264;11.330;2022-12-18T08:26:02;-4.20;1.00
29547;DHT22;40782;47.264;11.330;2022-12-18T08:28:30;-4.20;1.00
29547;DHT22;40782;47.264;11.330;2022-12-18T08:30:57;-4.20;1.00
29547;DHT22;40782;47.264;11.330;2022-12-18T08:33:25;-4.30;1.00
29547;DHT22;40782;47.264;11.330;2022-12-18T08:35:53;-4.40;1.00
29547;DHT22;40782;47.264;11.330;2022-12-18T08:38:20;-4.30;1.00
29547;DHT22;40782;47.264;11.330;2022-12-18T08:40:48;-4.20;1.00
29547;DHT22;40782;47.264;11.330;2022-12-18T08:43:15;-4.20;1.00
29547;DHT22;40782;47.264;11.330;2022-12-18T08:46:00;-4.10;1.00
29547;DHT22;40782;47.264;11.330;2022-12-18T08:48:28;-4.10;1.00
29547;DHT22;40782;47.264;11.330;2022-12-18T08:50:56;-4.00;1.00
29547;DHT22;40782;47.264;11.330;2022-12-18T08:53:24;-4.00;1.00
29547;DHT22;40782;47.264;11.330;2022-12-18T08:55:51;-3.90;1.00
29547;DHT22;40782;47.264;11.330;2022-12-18T08:58:19;-3.80;1.00
29547;DHT22;40782;47.264;11.330;2022-12-18T09:00:46;-3.60;1.00
29547;DHT22;40782;47.264;11.330;2022-12-18T09:03:14;-3.50;1.00
29547;DHT22;40782;47.264;11.330;2022-12-18T09:05:43;-3.40;1.00
29547;DHT22;40782;47.264;11.330;2022-12-18T09:08:11;-3.30;1.00
29547;DHT22;40782;47.264;11.330;2022-12-18T09:10:42;-3.10;1.00
29547;DHT22;40782;47.264;11.330;2022-12-18T09:13:10;-3.00;1.00
29547;DHT22;40782;47.264;11.330;2022-12-18T09:15:40;-2.90;1.00
29547;DHT22;40782;47.264;11.330;2022-12-18T09:18:08;-3.20;1.00
29547;DHT22;40782;47.264;11.330;2022-12-18T09:20:36;-3.20;1.00
29547;DHT22;40782;47.264;11.330;2022-12-18T09:23:04;-3.30;1.00
29547;DHT22;40782;47.264;11.330;2022-12-18T09:25:32;-3.10;1.00
29547;DHT22;40782;47.264;11.330;2022-12-18T09:28:02;-2.80;1.00
29547;DHT22;40782;47.264;11.330;2022-12-18T09:30:30;-2.60;1.00
29547;DHT22;40782;47.264;11.330;2022-12-18T09:32:59;-2.50;1.00
29547;DHT22;40782;47.264;11.330;2022-12-18T09:35:26;-2.20;1.00
29547;DHT22;40782;47.264;11.330;2022-12-18T09:37:54;-2.00;1.00
29547;DHT22;40782;47.264;11.330;2022-12-18T09:40:25;-1.80;1.00
29547;DHT22;40782;47.264;11.330;2022-12-18T09:42:55;-1.70;1.00
29547;DHT22;40782;47.264;11.330;2022-12-18T09:45:24;-1.40;1.00
29547;DHT22;40782;47.264;11.330;2022-12-18T09:47:52;-1.30;1.00
29547;DHT22;40782;47.264;11.330;2022-12-18T09:50:25;-1.10;1.00
29547;DHT22;40782;47.264;11.330;2022-12-18T09:52:57;-0.90;1.00
29547;DHT22;40782;47.264;11.330;2022-12-18T09:55:30;-0.70;1.00
29547;DHT22;40782;47.264;11.330;2022-12-18T09:58:02;-0.50;1.00
29547;DHT22;40782;47.264;11.330;2022-12-18T10:00:31;-0.30;99.90
29547;DHT22;40782;47.264;11.330;2022-12-18T10:03:01;-0.20;99.90
29547;DHT22;40782;47.264;11.330;2022-12-18T10:05:37;0.00;99.90
29547;DHT22;40782;47.264;11.330;2022-12-18T10:08:13;0.20;99.90
29547;DHT22;40782;47.264;11.330;2022-12-18T10:10:48;0.40;99.90
29547;DHT22;40782;47.264;11.330;2022-12-18T10:13:22;0.80;99.90
29547;DHT22;40782;47.264;11.330;2022-12-18T10:16:09;1.00;99.90
29547;DHT22;40782;47.264;11.330;2022-12-18T10:18:56;1.10;99.90
29547;DHT22;40782;47.264;11.330;2022-12-18T10:21:30;1.30;99.90
29547;DHT22;40782;47.264;11.330;2022-12-18T10:24:08;1.40;99.90
29547;DHT22;40782;47.264;11.330;2022-12-18T10:26:41;1.60;99.90
29547;DHT22;40782;47.264;11.330;2022-12-18T10:29:12;1.80;99.90
29547;DHT22;40782;47.264;11.330;2022-12-18T10:31:39;1.90;99.90
29547;DHT22;40782;47.264;11.330;2022-12-18T10:34:09;1.90;99.90
29547;DHT22;40782;47.264;11.330;2022-12-18T10:36:37;2.10;99.90
29547;DHT22;40782;47.264;11.330;2022-12-18T10:39:23;2.20;99.90
29547;DHT22;40782;47.264;11.330;2022-12-18T10:42:10;2.20;99.90
29547;DHT22;40782;47.264;11.330;2022-12-18T10:44:38;2.30;99.90
29547;DHT22;40782;47.264;11.330;2022-12-18T10:47:12;2.70;99.90
29547;DHT22;40782;47.264;11.330;2022-12-18T10:49:46;2.90;99.90
29547;DHT22;40782;47.264;11.330;2022-12-18T10:52:17;3.00;99.90
29547;DHT22;40782;47.264;11.330;2022-12-18T10:54:49;3.10;99.90
29547;DHT22;40782;47.264;11.330;2022-12-18T10:57:35;3.20;99.90
29547;DHT22;40782;47.264;11.330;2022-12-18T11:00:27;3.30;99.90
29547;DHT22;40782;47.264;11.330;2022-12-18T11:02:55;3.50;99.90
29547;DHT22;40782;47.264;11.330;2022-12-18T11:05:28;3.80;99.90
29547;DHT22;40782;47.264;11.330;2022-12-18T11:07:56;3.90;99.90
29547;DHT22;40782;47.264;11.330;2022-12-18T11:10:28;4.00;99.90
29547;DHT22;40782;47.264;11.330;2022-12-18T11:13:16;4.20;99.90
29547;DHT22;40782;47.264;11.330;2022-12-18T11:15:44;4.10;99.90
29547;DHT22;40782;47.264;11.330;2022-12-18T11:18:17;4.10;99.90
29547;DHT22;40782;47.264;11.330;2022-12-18T11:20:52;4.40;99.90
29547;DHT22;40782;47.264;11.330;2022-12-18T11:23:21;4.50;99.90
29547;DHT22;40782;47.264;11.330;2022-12-18T11:25:55;4.70;99.90
29547;DHT22;40782;47.264;11.330;2022-12-18T11:28:35;5.00;99.90
29547;DHT22;40782;47.264;11.330;2022-12-18T11:31:16;5.00;99.90
29547;DHT22;40782;47.264;11.330;2022-12-18T11:33:46;5.00;99.90
29547;DHT22;40782;47.264;11.330;2022-12-18T11:36:16;5.20;99.90
29547;DHT22;40782;47.264;11.330;2022-12-18T11:38:44;5.30;99.90
29547;DHT22;40782;47.264;11.330;2022-12-18T11:41:21;5.30;99.90
29547;DHT22;40782;47.264;11.330;2022-12-18T11:44:14;5.30;99.90
29547;DHT22;40782;47.264;11.330;2022-12-18T11:46:47;5.40;99.90
29547;DHT22;40782;47.264;11.330;2022-12-18T11:49:19;5.50;99.90
29547;DHT22;40782;47.264;11.330;2022-12-18T11:51:53;5.40;99.90
29547;DHT22;40782;47.264;11.330;2022-12-18T11:54:22;5.30;99.90
29547;DHT22;40782;47.264;11.330;2022-12-18T11:56:53;5.40;99.90
29547;DHT22;40782;47.264;11.330;2022-12-18T11:59:30;5.60;99.90
29547;DHT22;40782;47.264;11.330;2022-12-18T12:02:20;5.50;99.90
29547;DHT22;40782;47.264;11.330;2022-12-18T12:05:02;5.80;99.90
29547;DHT22;40782;47.264;11.330;2022-12-18T12:07:38;6.10;99.90
29547;DHT22;40782;47.264;11.330;2022-12-18T12:10:20;6.20;99.90
29547;DHT22;40782;47.264;11.330;2022-12-18T12:13:03;6.10;99.90
29547;DHT22;40782;47.264;11.330;2022-12-18T12:15:39;6.10;99.90
29547;DHT22;40782;47.264;11.330;2022-12-18T12:18:18;6.20;99.90
29547;DHT22;40782;47.264;11.330;2022-12-18T12:20:56;6.10;99.90
29547;DHT22;40782;47.264;11.330;2022-12-18T12:23:32;6.00;99.90
29547;DHT22;40782;47.264;11.330;2022-12-18T12:26:05;5.90;99.90
29547;DHT22;40782;47.264;11.330;2022-12-18T12:31:50;6.00;99.90
29547;DHT22;40782;47.264;11.330;2022-12-18T12:34:21;6.00;99.90
29547;DHT22;40782;47.264;11.330;2022-12-18T12:37:00;6.20;99.90
29547;DHT22;40782;47.264;11.330;2022-12-18T12:39:34;6.30;99.90
29547;DHT22;40782;47.264;11.330;2022-12-18T12:42:04;6.60;99.90
29547;DHT22;40782;47.264;11.330;2022-12-18T12:44:53;6.60;99.90
29547;DHT22;40782;47.264;11.330;2022-12-18T12:47:26;6.50;99.90
29547;DHT22;40782;47.264;11.330;2022-12-18T12:49:55;6.30;99.90
29547;DHT22;40782;47.264;11.330;2022-12-18T12:52:28;6.40;99.90
29547;DHT22;40782;47.264;11.330;2022-12-18T12:54:58;6.40;99.90
29547;DHT22;40782;47.264;11.330;2022-12-18T12:57:31;6.30;99.90
29547;DHT22;40782;47.264;11.330;2022-12-18T13:00:03;6.40;99.90
29547;DHT22;40782;47.264;11.330;2022-12-18T13:02:35;6.60;99.90
29547;DHT22;40782;47.264;11.330;2022-12-18T13:05:13;6.70;99.90
29547;DHT22;40782;47.264;11.330;2022-12-18T13:07:49;6.60;99.90
29547;DHT22;40782;47.264;11.330;2022-12-18T13:10:26;6.80;99.90
29547;DHT22;40782;47.264;11.330;2022-12-18T13:12:59;6.50;99.90
29547;DHT22;40782;47.264;11.330;2022-12-18T13:15:31;6.60;99.90
29547;DHT22;40782;47.264;11.330;2022-12-18T13:18:13;6.80;99.90
29547;DHT22;40782;47.264;11.330;2022-12-18T13:20:43;6.70;99.90
29547;DHT22;40782;47.264;11.330;2022-12-18T13:23:31;6.40;99.90
29547;DHT22;40782;47.264;11.330;2022-12-18T13:26:29;6.40;99.90
29547;DHT22;40782;47.264;11.330;2022-12-18T13:28:59;6.30;99.90
29547;DHT22;40782;47.264;11.330;2022-12-18T13:34:36;5.90;99.90
29547;DHT22;40782;47.264;11.330;2022-12-18T13:37:41;5.70;99.90
29547;DHT22;40782;47.264;11.330;2022-12-18T13:43:36;5.30;99.90
29547;DHT22;40782;47.264;11.330;2022-12-18T13:46:17;5.10;99.90
29547;DHT22;40782;47.264;11.330;2022-12-18T13:48:51;5.10;99.90
29547;DHT22;40782;47.264;11.330;2022-12-18T13:51:20;4.90;99.90
29547;DHT22;40782;47.264;11.330;2022-12-18T13:53:51;4.70;99.90
29547;DHT22;40782;47.264;11.330;2022-12-18T13:56:21;4.50;99.90
29547;DHT22;40782;47.264;11.330;2022-12-18T13:59:15;4.40;99.90
29547;DHT22;40782;47.264;11.330;2022-12-18T14:01:47;4.20;99.90
29547;DHT22;40782;47.264;11.330;2022-12-18T14:04:21;4.00;99.90
29547;DHT22;40782;47.264;11.330;2022-12-18T14:06:53;3.70;99.90
29547;DHT22;40782;47.264;11.330;2022-12-18T14:09:26;3.50;99.90
29547;DHT22;40782;47.264;11.330;2022-12-18T14:11:54;3.40;99.90
29547;DHT22;40782;47.264;11.330;2022-12-18T14:14:44;3.00;99.90
29547;DHT22;40782;47.264;11.330;2022-12-18T14:17:13;2.90;99.90
29547;DHT22;40782;47.264;11.330;2022-12-18T14:19:43;2.70;99.90
29547;DHT22;40782;47.264;11.330;2022-12-18T14:22:18;2.80;99.90
29547;DHT22;40782;47.264;11.330;2022-12-18T14:24:46;2.60;99.90
29547;DHT22;40782;47.264;11.330;2022-12-18T14:27:21;2.30;99.90
29547;DHT22;40782;47.264;11.330;2022-12-18T14:29:49;2.20;99.90
29547;DHT22;40782;47.264;11.330;2022-12-18T14:32:18;2.10;99.90
29547;DHT22;40782;47.264;11.330;2022-12-18T14:34:46;1.90;99.90
29547;DHT22;40782;47.264;11.330;2022-12-18T14:37:17;1.70;99.90
29547;DHT22;40782;47.264;11.330;2022-12-18T14:39:58;1.70;99.90
29547;DHT22;40782;47.264;11.330;2022-12-18T14:42:26;1.50;99.90
29547;DHT22;40782;47.264;11.330;2022-12-18T14:45:32;1.30;99.90
29547;DHT22;40782;47.264;11.330;2022-12-18T14:47:59;1.20;99.90
29547;DHT22;40782;47.264;11.330;2022-12-18T14:50:27;1.10;99.90
29547;DHT22;40782;47.264;11.330;2022-12-18T14:52:55;1.00;99.90
29547;DHT22;40782;47.264;11.330;2022-12-18T14:55:23;0.90;99.90
29547;DHT22;40782;47.264;11.330;2022-12-18T14:57:50;0.90;99.90
29547;DHT22;40782;47.264;11.330;2022-12-18T15:00:20;0.70;99.90
29547;DHT22;40782;47.264;11.330;2022-12-18T15:02:49;0.80;99.90
29547;DHT22;40782;47.264;11.330;2022-12-18T15:05:19;0.70;99.90
29547;DHT22;40782;47.264;11.330;2022-12-18T15:07:48;0.60;99.90
29547;DHT22;40782;47.264;11.330;2022-12-18T15:10:18;0.60;99.90
29547;DHT22;40782;47.264;11.330;2022-12-18T15:12:47;0.40;99.90
29547;DHT22;40782;47.264;11.330;2022-12-18T15:18:30;0.10;99.90
29547;DHT22;40782;47.264;11.330;2022-12-18T15:21:00;0.00;99.90
29547;DHT22;40782;47.264;11.330;2022-12-18T15:23:36;-0.10;99.90
29547;DHT22;40782;47.264;11.330;2022-12-18T15:26:06;-0.20;99.90
29547;DHT22;40782;47.264;11.330;2022-12-18T15:28:36;-0.20;99.90
29547;DHT22;40782;47.264;11.330;2022-12-18T15:31:06;-0.20;99.90
29547;DHT22;40782;47.264;11.330;2022-12-18T15:34:04;-0.30;99.90
29547;DHT22;40782;47.264;11.330;2022-12-18T15:36:32;-0.50;99.90
29547;DHT22;40782;47.264;11.330;2022-12-18T15:39:02;-0.60;99.90
29547;DHT22;40782;47.264;11.330;2022-12-18T15:41:32;-0.60;99.90
29547;DHT22;40782;47.264;11.330;2022-12-18T15:44:00;-0.70;99.90
29547;DHT22;40782;47.264;11.330;2022-12-18T15:46:26;-0.80;99.90
29547;DHT22;40782;47.264;11.330;2022-12-18T15:48:54;-0.90;99.90
29547;DHT22;40782;47.264;11.330;2022-12-18T15:51:24;-1.00;99.90
29547;DHT22;40782;47.264;11.330;2022-12-18T15:53:54;-1.00;99.90
29547;DHT22;40782;47.264;11.330;2022-12-18T15:56:22;-1.00;99.90
29547;DHT22;40782;47.264;11.330;2022-12-18T15:59:11;-1.00;99.90
29547;DHT22;40782;47.264;11.330;2022-12-18T16:01:39;-1.20;99.90
29547;DHT22;40782;47.264;11.330;2022-12-18T16:04:08;-1.30;99.90
29547;DHT22;40782;47.264;11.330;2022-12-18T16:06:36;-1.30;99.90
29547;DHT22;40782;47.264;11.330;2022-12-18T16:09:03;-1.40;99.90